Terminal Aerodrome Forecast
Issued by NWS Louisville, KY

Home | Current Version | Previous Version | Text Only | Print | Product List | Glossary On
Versions: 1 2 3 4 5 6 7 8 9 10 11 12 13
000
FTUS43 KLMK 220500
TAFLEX
TAF
KLEX 220520Z 2206/2306 03007KT P6SM SCT040
     FM221000 02006KT P6SM BKN030
     FM221400 01006KT P6SM SCT040
     FM222300 03004KT P6SM SKC=

USA.gov is the U.S. government's official web portal to all federal, state and local government web resources and services.